Mayfield Heights, OH (44124)

11:23 AM EDT on August 30, 2015 (GMT -0400)
Buckeye Woodhill | | Change Station
CLOSE
Current Station
Personal Weather Station
Location: Cleveland, OH
Elevation: 776 ft
Nearby Weather Stations

Elev 776 ft 41.48 °N, 81.62 °W | Updated 57 seconds ago

Overcast
Overcast
71.2 °F
Feels Like 71.2 °F
N
1.1
Wind Variable Wind from East
Gusts 3.0 mph

Today
High -- | Low -- °F
--% Chance of Precip.
Yesterday
High -- | Low -- °F
Precip. -- in
6:50 AM 8:03 PM
Full, 99% visible
Pressure 30.09 in
Visibility 10.0 miles
Clouds Overcast 5500 ft
Dew Point 69 °F
Humidity 93%
Rainfall 0.29 in
Snow Depth Not available.
UV 2 out of 12
Pollen 9.80 out of 12
Air Quality Not available.
Flu Activity Not available.
METAR KBKL 301453Z 18007KT 10SM OVC055 22/20 A3010 RMK AO2 SLP189 P0004 60005 T02220200 53006
Pressure 30.09 in
Visibility 10.0 miles
Clouds Overcast 5500 ft
Dew Point 69 °F
Humidity 93%
Rainfall 0.29 in
Snow Depth Not available.
UV 2 out of 12
Pollen 9.80 out of 12
Air Quality Not available.
Flu Activity Not available.
METAR KBKL 301453Z 18007KT 10SM OVC055 22/20 A3010 RMK AO2 SLP189 P0004 60005 T02220200 53006

10-Day Weather Forecast

×

Almanac

Astronomy

Aug. 30, 2015 Rise Set
Actual Time
Civil Twilight
Nautical Twilight
Astronomical Twilight
Moon
Length of Visible Light
Length of Day
Tomorrow will be .
, % of the Moon is Illuminated

Today's Extremes

State Highs State Lows

Community

WunderPhotos

Upload Photos

1,850,995 photos uploaded!

WunderBlogs® & News

Nearby

Air Quality

  Air Quality AQ Index Pollutant
Not available.

Snow Depth

Station Depth Elevation

Earthquake Activity

City Distance Mag. Time & Date
Minimum magnitude displayed is 2.5.

Coastal Water Temperatures

Place Temperature

Stations

Nearby Weather Stations

Station Location Temp. Windchill Dew Point Humidity Wind Precip. Elev Updated Type